EW1145 Weather Reports


Display with metric or nautical units.
time (UTC)temp
F
wind
direction
speed
MPH
gust
MPH
rain 1hr
in
rain 24hr
in
rain mn
in
humidity
%
barometer
mb
20220703000027 71 355 2.0 6.0 0.00 0.00 0.00 60 1012.3
20220702234522 69 93 0.0 2.0 0.00 0.00 0.00 64 1012.4
20220702233020 69 360 0.0 1.0 0.00 0.00 0.00 64 1012.6
20220702231520 68 85 0.0 4.0 0.00 0.00 0.00 66 1012.6
20220702230019 70 107 1.0 4.0 0.00 0.00 0.00 63 1012.7
20220702224521 70 360 1.0 7.0 0.00 0.00 0.00 63 1012.6
20220702223019 69 45 0.0 2.0 0.00 0.00 0.00 64 1012.8
20220702221515 69 11 0.0 7.0 0.00 0.00 0.00 63 1012.8
20220702220015 70 134 1.0 5.0 0.00 0.00 0.00 62 1012.9
20220702214512 70 40 0.0 7.0 0.00 0.00 0.00 62 1013.0
20220702213009 68 108 3.0 9.0 0.00 0.00 0.00 67 1013.0
20220702211509 69 317 0.0 5.0 0.00 0.00 0.00 63 1013.1
20220702210005 68 91 1.0 4.0 0.00 0.00 0.00 66 1013.4
20220702204504 68 121 0.0 3.0 0.00 0.00 0.00 64 1013.5
20220702203003 68 336 0.0 5.0 0.00 0.00 0.00 65 1013.5
20220702201601 67 12 1.0 4.0 0.00 0.00 0.00 66 1013.5
20220702200059 67 39 3.0 8.0 0.00 0.00 0.00 67 1013.6
20220702194554 65 53 0.0 3.0 0.00 0.00 0.00 71 1013.6
20220702193052 65 99 2.0 5.0 0.00 0.00 0.00 69 1013.8
20220702191550 64 92 1.0 5.0 0.00 0.00 0.00 69 1014.1
20220702190050 65 84 1.0 4.0 0.00 0.00 0.00 69 1014.2
20220702184553 64 49 0.0 4.0 0.00 0.00 0.00 69 1014.2
20220702183046 64 33 1.0 6.0 0.00 0.00 0.00 68 1014.2
20220702181542 64 321 0.0 5.0 0.00 0.00 0.00 70 1014.3
20220702180044 63 155 1.0 8.0 0.00 0.00 0.00 72 1014.5
20220702174557 61 50 1.0 6.0 0.00 0.00 0.00 74 1014.5
20220702173033 61 360 0.0 5.0 0.00 0.00 0.00 74 1014.7
20220702171532 60 335 1.0 8.0 0.00 0.00 0.00 75 1014.8
20220702170030 60 351 0.0 5.0 0.00 0.00 0.00 76 1014.9
20220702164532 60 42 2.0 7.0 0.00 0.00 0.00 75 1014.9
20220702163033 60 17 1.0 5.0 0.00 0.00 0.00 76 1014.9
20220702161532 59 21 0.0 2.0 0.00 0.00 0.00 79 1015.0
20220702160022 58 29 0.0 3.0 0.00 0.00 0.00 79 1015.2
20220702154521 58 5 0.0 5.0 0.00 0.00 0.00 79 1015.3
20220702153018 57 28 0.0 6.0 0.00 0.00 0.00 81 1015.3
20220702151520 57 322 0.0 4.0 0.00 0.00 0.00 84 1015.4
20220702150015 56 198 0.0 1.0 0.00 0.00 0.00 85 1015.4
20220702144513 55 198 0.0 3.0 0.00 0.00 0.00 86 1015.5
20220702143010 55 316 0.0 4.0 0.00 0.00 0.00 87 1015.5
20220702141508 55 351 0.0 1.0 0.00 0.00 0.00 87 1015.5
20220702140008 55 351 0.0 4.0 0.00 0.00 0.00 88 1015.6
20220702134508 54 317 0.0 0.0 0.00 0.00 0.00 89 1015.6
20220702133006 53 317 0.0 3.0 0.00 0.00 0.00 91 1015.7
20220702131510 53 42 0.0 0.0 0.00 0.00 0.00 91 1015.7
20220702130011 52 42 0.0 0.0 0.00 0.00 0.00 93 1015.8
20220702124504 51 42 0.0 1.0 0.00 0.00 0.00 94 1015.7
20220702123003 51 28 0.0 0.0 0.00 0.00 0.00 93 1015.7
20220702121503 51 28 0.0 0.0 0.00 0.00 0.00 94 1015.6
20220702120003 51 28 0.0 0.0 0.00 0.00 0.00 93 1015.7
20220702114505 51 28 0.0 0.0 0.00 0.00 0.00 93 1015.6
20220702113004 51 28 0.0 0.0 0.00 0.00 0.00 93 1015.6
20220702111602 51 28 0.0 0.0 0.00 0.00 0.00 93 1015.6
20220702111501 51 28 0.0 0.0 0.00 0.00 0.00 93 1015.6
20220702110103 50 28 0.0 0.0 0.00 0.00 0.00 93 1015.6
20220702104606 51 28 0.0 0.0 0.00 0.00 0.00 92 1015.5
20220702103057 51 28 0.0 0.0 0.00 0.00 0.00 92 1015.6
20220702101555 51 28 0.0 0.0 0.00 0.00 0.00 92 1015.6
20220702100054 51 28 0.0 0.0 0.00 0.00 0.00 91 1015.7
20220702094607 51 28 0.0 0.0 0.00 0.00 0.00 91 1015.8
20220702093050 52 28 0.0 0.0 0.00 0.00 0.00 90 1015.8
20220702091551 52 28 0.0 0.0 0.00 0.00 0.00 89 1015.8
20220702090047 52 28 0.0 1.0 0.00 0.00 0.00 88 1015.8
20220702084545 53 28 0.0 0.0 0.00 0.00 0.00 87 1015.8
20220702083047 53 28 0.0 0.0 0.00 0.00 0.00 85 1015.8
20220702081543 54 27 0.0 0.0 0.00 0.00 0.00 84 1015.9
20220702080039 55 32 0.0 2.0 0.00 0.00 0.00 83 1016.0
20220702074536 55 46 0.0 3.0 0.00 0.00 0.00 82 1016.0
20220702073034 56 40 1.0 6.0 0.00 0.00 0.00 80 1016.1
20220702071544 56 32 0.0 4.0 0.00 0.00 0.00 80 1016.0
20220702070034 56 38 1.0 4.0 0.00 0.00 0.00 79 1016.1
20220702064529 57 61 0.0 2.0 0.00 0.00 0.00 79 1016.0
20220702063029 57 5 0.0 1.0 0.00 0.00 0.00 80 1016.1
20220702061528 58 5 0.0 0.0 0.00 0.00 0.00 79 1016.0
20220702060036 59 5 0.0 0.0 0.00 0.00 0.00 78 1015.9
20220702054526 59 329 0.0 1.0 0.00 0.00 0.00 77 1015.9
20220702053028 60 327 0.0 3.0 0.00 0.00 0.00 76 1015.9
20220702051532 60 290 0.0 4.0 0.00 0.00 0.00 75 1015.8
20220702050032 61 312 0.0 4.0 0.00 0.00 0.00 74 1015.8
20220702044525 62 284 0.0 4.0 0.00 0.00 0.00 72 1015.7
20220702043024 63 293 1.0 7.0 0.00 0.00 0.00 70 1015.5
20220702041524 64 306 1.0 9.0 0.00 0.00 0.00 69 1015.3
20220702040026 65 51 2.0 8.0 0.00 0.00 0.00 66 1015.2
20220702034524 66 129 3.0 8.0 0.00 0.00 0.00 65 1015.1
20220702033022 68 360 1.0 8.0 0.00 0.00 0.00 63 1015.0
20220702031541 69 13 4.0 10.0 0.00 0.00 0.00 60 1015.1
20220702030021 70 67 1.0 6.0 0.00 0.00 0.00 58 1015.0
20220702024526 71 26 0.0 4.0 0.00 0.00 0.00 58 1015.0
20220702023020 72 43 1.0 8.0 0.00 0.00 0.00 56 1014.9
20220702021521 73 50 1.0 7.0 0.00 0.00 0.00 55 1014.8
20220702020024 74 15 1.0 11.0 0.00 0.00 0.00 53 1014.8
20220702014520 76 44 2.0 7.0 0.00 0.00 0.00 50 1014.8
20220702013018 76 98 0.0 12.0 0.00 0.00 0.00 50 1014.8
20220702011617 77 96 2.0 8.0 0.00 0.00 0.00 49 1014.8
20220702010018 78 5 2.0 8.0 0.00 0.00 0.00 47 1014.9
20220702004517 78 25 1.0 10.0 0.00 0.00 0.00 48 1014.9
20220702003024 78 16 2.0 8.0 0.00 0.00 0.00 47 1015.1
20220702001513 78 312 1.0 9.0 0.00 0.00 0.00 46 1015.3